JBU822 KPBI-KBOS
Flight info
| Callsign | JBU822 |
|---|---|
| Flight time | 2h 55m |
| Altitude | 35000 |
| Route | SLIDZ3 LENDS GRUBR Y299 SEELO WAALT Q131 EARZZ JAMIE Q133 JFK ROBUC3 |
| Aircraft | A321/M-SDE3FGHIRWY/LB1 |
Departure
| Time | 2026-05-05 18:00 |
|---|---|
| Airport | Palm Beach International Airport (KPBI) |
Arrival
| Time | 2026-05-05 20:56 |
|---|---|
| Airport | Boston Logan International Airport (KBOS) |
| Time | Latitude | Longitude | Altitude | Speed | Heading |
|---|---|---|---|---|---|
| 2026-05-05 17:03 | 26.68521 | -80.08891 | 22 ft | 0 kts | 347° |
| 2026-05-05 17:51 | 26.68520 | -80.08891 | 22 ft | 1 kts | 347° |
| 2026-05-05 17:51 | 26.68496 | -80.08885 | 23 ft | 4 kts | 347° |
| 2026-05-05 17:51 | 26.68474 | -80.08879 | 25 ft | 4 kts | 350° |
| 2026-05-05 17:52 | 26.68451 | -80.08881 | 24 ft | 4 kts | 42° |
| 2026-05-05 17:52 | 26.68442 | -80.08903 | 25 ft | 3 kts | 92° |
| 2026-05-05 17:52 | 26.68443 | -80.08930 | 23 ft | 1 kts | 92° |
| 2026-05-05 17:54 | 26.68442 | -80.08912 | 23 ft | 6 kts | 92° |
| 2026-05-05 17:55 | 26.68440 | -80.08854 | 24 ft | 9 kts | 93° |
| 2026-05-05 17:55 | 26.68435 | -80.08756 | 22 ft | 16 kts | 93° |
| 2026-05-05 17:55 | 26.68365 | -80.08724 | 22 ft | 15 kts | 209° |
| 2026-05-05 17:55 | 26.68344 | -80.08839 | 22 ft | 17 kts | 273° |
| 2026-05-05 17:56 | 26.68351 | -80.08976 | 23 ft | 19 kts | 273° |
| 2026-05-05 17:56 | 26.68358 | -80.09127 | 22 ft | 20 kts | 273° |
| 2026-05-05 17:56 | 26.68365 | -80.09296 | 22 ft | 23 kts | 273° |
| 2026-05-05 17:56 | 26.68372 | -80.09476 | 22 ft | 24 kts | 272° |
| 2026-05-05 17:57 | 26.68381 | -80.09662 | 22 ft | 24 kts | 273° |
| 2026-05-05 17:57 | 26.68389 | -80.09850 | 22 ft | 25 kts | 272° |
| 2026-05-05 17:57 | 26.68396 | -80.10043 | 21 ft | 25 kts | 273° |
| 2026-05-05 17:57 | 26.68407 | -80.10239 | 21 ft | 25 kts | 272° |
| 2026-05-05 17:58 | 26.68413 | -80.10438 | 21 ft | 26 kts | 272° |
| 2026-05-05 17:58 | 26.68423 | -80.10638 | 21 ft | 24 kts | 273° |
| 2026-05-05 17:58 | 26.68424 | -80.10786 | 21 ft | 15 kts | 257° |
| 2026-05-05 17:58 | 26.68341 | -80.10824 | 21 ft | 7 kts | 182° |
| 2026-05-05 17:59 | 26.68319 | -80.10799 | 21 ft | 5 kts | 91° |
| 2026-05-05 17:59 | 26.68319 | -80.10792 | 21 ft | 2 kts | 92° |
| 2026-05-05 17:59 | 26.68310 | -80.10540 | 22 ft | 67 kts | 93° |
| 2026-05-05 17:59 | 26.68276 | -80.09784 | 22 ft | 126 kts | 93° |
| 2026-05-05 18:00 | 26.68228 | -80.08632 | 67 ft | 166 kts | 93° |
| 2026-05-05 18:00 | 26.68179 | -80.07363 | 787 ft | 159 kts | 91° |
| 2026-05-05 18:00 | 26.68155 | -80.06134 | 1403 ft | 158 kts | 88° |
| 2026-05-05 18:00 | 26.68362 | -80.04869 | 1639 ft | 177 kts | 71° |
| 2026-05-05 18:01 | 26.68945 | -80.03569 | 1783 ft | 196 kts | 62° |
| 2026-05-05 18:01 | 26.69618 | -80.02152 | 1884 ft | 218 kts | 63° |
| 2026-05-05 18:01 | 26.70344 | -80.00602 | 2200 ft | 229 kts | 63° |
| 2026-05-05 18:01 | 26.71114 | -79.98952 | 2478 ft | 248 kts | 63° |
| 2026-05-05 18:02 | 26.72002 | -79.97264 | 3050 ft | 255 kts | 52° |
| 2026-05-05 18:02 | 26.73163 | -79.95748 | 3673 ft | 260 kts | 49° |
| 2026-05-05 18:02 | 26.74364 | -79.94202 | 4280 ft | 265 kts | 49° |
| 2026-05-05 18:02 | 26.75584 | -79.92629 | 4946 ft | 270 kts | 49° |
| 2026-05-05 18:03 | 26.76826 | -79.91025 | 5556 ft | 275 kts | 49° |
| 2026-05-05 18:03 | 26.78088 | -79.89392 | 6187 ft | 280 kts | 49° |
| 2026-05-05 18:03 | 26.79366 | -79.87733 | 6794 ft | 284 kts | 49° |
| 2026-05-05 18:03 | 26.80667 | -79.86048 | 7379 ft | 288 kts | 47° |
| 2026-05-05 18:04 | 26.81992 | -79.84334 | 7930 ft | 294 kts | 48° |
| 2026-05-05 18:04 | 26.83338 | -79.82592 | 8549 ft | 297 kts | 47° |
| 2026-05-05 18:04 | 26.84679 | -79.80852 | 9151 ft | 301 kts | 48° |
| 2026-05-05 18:04 | 26.86046 | -79.79074 | 9778 ft | 303 kts | 47° |
| 2026-05-05 18:05 | 26.87457 | -79.77238 | 10253 ft | 313 kts | 47° |
| 2026-05-05 18:05 | 26.88904 | -79.75356 | 10363 ft | 333 kts | 47° |
| 2026-05-05 18:05 | 26.90463 | -79.73333 | 10495 ft | 353 kts | 47° |
| 2026-05-05 18:05 | 26.92113 | -79.71201 | 10619 ft | 370 kts | 46° |
| 2026-05-05 18:06 | 26.93988 | -79.69146 | 10828 ft | 382 kts | 41° |
| 2026-05-05 18:06 | 26.95307 | -79.67761 | 11122 ft | 386 kts | 41° |
| 2026-05-05 18:06 | 26.97919 | -79.65015 | 11791 ft | 391 kts | 41° |
| 2026-05-05 18:06 | 26.99910 | -79.62917 | 12299 ft | 395 kts | 41° |
| 2026-05-05 18:07 | 27.01922 | -79.60793 | 12796 ft | 398 kts | 40° |
| 2026-05-05 18:07 | 27.03948 | -79.58651 | 13310 ft | 402 kts | 40° |
| 2026-05-05 18:07 | 27.05990 | -79.56491 | 13799 ft | 405 kts | 40° |
| 2026-05-05 18:07 | 27.08052 | -79.54310 | 14262 ft | 409 kts | 40° |
| 2026-05-05 18:08 | 27.10128 | -79.52119 | 14750 ft | 411 kts | 40° |
| 2026-05-05 18:08 | 27.12217 | -79.49912 | 15241 ft | 413 kts | 40° |
| 2026-05-05 18:08 | 27.14312 | -79.47697 | 15719 ft | 416 kts | 39° |
| 2026-05-05 18:08 | 27.16426 | -79.45459 | 16201 ft | 418 kts | 39° |
| 2026-05-05 18:09 | 27.18547 | -79.43213 | 16675 ft | 421 kts | 39° |
| 2026-05-05 18:09 | 27.20684 | -79.40950 | 17138 ft | 424 kts | 39° |
| 2026-05-05 18:09 | 27.22834 | -79.38670 | 17601 ft | 427 kts | 39° |
| 2026-05-05 18:09 | 27.24999 | -79.36368 | 18078 ft | 430 kts | 39° |
| 2026-05-05 18:10 | 27.27148 | -79.34080 | 18501 ft | 432 kts | 39° |
| 2026-05-05 18:10 | 27.29337 | -79.31752 | 18868 ft | 435 kts | 39° |
| 2026-05-05 18:10 | 27.31544 | -79.29409 | 19247 ft | 437 kts | 38° |
| 2026-05-05 18:10 | 27.33762 | -79.27055 | 19605 ft | 440 kts | 38° |
| 2026-05-05 18:11 | 27.35995 | -79.24680 | 19964 ft | 443 kts | 38° |
| 2026-05-05 18:11 | 27.38242 | -79.22287 | 20309 ft | 445 kts | 38° |
| 2026-05-05 18:11 | 27.40496 | -79.19884 | 20654 ft | 448 kts | 38° |
| 2026-05-05 18:11 | 27.42765 | -79.17467 | 20990 ft | 450 kts | 38° |
| 2026-05-05 18:12 | 27.45049 | -79.15034 | 21318 ft | 452 kts | 38° |
| 2026-05-05 18:12 | 27.47334 | -79.12595 | 21628 ft | 455 kts | 38° |
| 2026-05-05 18:12 | 27.49635 | -79.10135 | 21939 ft | 457 kts | 38° |
| 2026-05-05 18:12 | 27.51950 | -79.07657 | 22244 ft | 460 kts | 37° |
| 2026-05-05 18:13 | 27.54270 | -79.05174 | 22553 ft | 462 kts | 37° |
| 2026-05-05 18:13 | 27.56605 | -79.02674 | 22868 ft | 464 kts | 37° |
| 2026-05-05 18:13 | 27.58949 | -79.00162 | 23173 ft | 466 kts | 37° |
| 2026-05-05 18:13 | 27.61303 | -78.97637 | 23461 ft | 468 kts | 37° |
| 2026-05-05 18:14 | 27.63690 | -78.95136 | 23748 ft | 467 kts | 33° |
| 2026-05-05 18:14 | 27.66315 | -78.93038 | 24014 ft | 459 kts | 23° |
| 2026-05-05 18:14 | 27.69127 | -78.91510 | 24279 ft | 451 kts | 13° |
| 2026-05-05 18:14 | 27.72107 | -78.90513 | 24551 ft | 443 kts | 5° |
| 2026-05-05 18:15 | 27.75135 | -78.90007 | 24825 ft | 440 kts | 0° |
| 2026-05-05 18:15 | 27.78177 | -78.89581 | 25103 ft | 441 kts | 0° |
| 2026-05-05 18:15 | 27.81227 | -78.89155 | 25372 ft | 442 kts | 0° |
| 2026-05-05 18:15 | 27.84284 | -78.88727 | 25634 ft | 443 kts | 0° |
| 2026-05-05 18:16 | 27.87352 | -78.88297 | 25910 ft | 444 kts | 0° |
| 2026-05-05 18:16 | 27.90424 | -78.87865 | 26179 ft | 446 kts | 0° |
| 2026-05-05 18:16 | 27.93501 | -78.87431 | 26495 ft | 446 kts | 0° |
| 2026-05-05 18:16 | 27.96588 | -78.86993 | 26812 ft | 447 kts | 0° |
| 2026-05-05 18:17 | 27.99680 | -78.86558 | 27109 ft | 448 kts | 0° |
| 2026-05-05 18:17 | 28.02775 | -78.86124 | 27386 ft | 449 kts | 0° |
| 2026-05-05 18:17 | 28.05873 | -78.85686 | 27757 ft | 447 kts | 0° |
| 2026-05-05 18:17 | 28.08955 | -78.85247 | 28167 ft | 445 kts | 0° |
| 2026-05-05 18:18 | 28.12018 | -78.84809 | 28569 ft | 444 kts | 0° |
| 2026-05-05 18:18 | 28.15076 | -78.84373 | 28963 ft | 442 kts | 0° |
| 2026-05-05 18:18 | 28.18121 | -78.83941 | 29362 ft | 440 kts | 0° |
| 2026-05-05 18:18 | 28.21145 | -78.83516 | 29803 ft | 438 kts | 0° |
| 2026-05-05 18:19 | 28.24151 | -78.83096 | 30273 ft | 433 kts | 0° |
| 2026-05-05 18:19 | 28.27131 | -78.82675 | 30677 ft | 429 kts | 0° |
| 2026-05-05 18:19 | 28.30088 | -78.82256 | 31068 ft | 426 kts | 360° |
| 2026-05-05 18:19 | 28.33014 | -78.81840 | 31454 ft | 422 kts | 360° |
| 2026-05-05 18:20 | 28.35923 | -78.81429 | 31824 ft | 419 kts | 359° |
| 2026-05-05 18:20 | 28.38804 | -78.81023 | 32195 ft | 416 kts | 359° |
| 2026-05-05 18:20 | 28.41663 | -78.80619 | 32561 ft | 413 kts | 359° |
| 2026-05-05 18:20 | 28.44504 | -78.80216 | 32921 ft | 410 kts | 359° |
| 2026-05-05 18:21 | 28.47320 | -78.79811 | 33277 ft | 407 kts | 359° |
| 2026-05-05 18:21 | 28.50126 | -78.79408 | 33661 ft | 404 kts | 358° |
| 2026-05-05 18:21 | 28.52899 | -78.79012 | 34042 ft | 400 kts | 358° |
| 2026-05-05 18:21 | 28.55613 | -78.78627 | 34348 ft | 397 kts | 358° |
| 2026-05-05 18:22 | 28.58344 | -78.78243 | 34609 ft | 395 kts | 358° |
| 2026-05-05 18:22 | 28.61068 | -78.77861 | 34845 ft | 394 kts | 358° |
| 2026-05-05 18:22 | 28.63788 | -78.77473 | 35035 ft | 394 kts | 358° |
| 2026-05-05 18:23 | 28.69229 | -78.76694 | 35103 ft | 395 kts | 358° |
| 2026-05-05 18:23 | 28.74682 | -78.75912 | 35103 ft | 395 kts | 358° |
| 2026-05-05 18:24 | 28.80135 | -78.75136 | 35109 ft | 394 kts | 358° |
| 2026-05-05 18:24 | 28.85576 | -78.74362 | 35106 ft | 394 kts | 358° |
| 2026-05-05 18:25 | 28.91020 | -78.73578 | 35111 ft | 394 kts | 358° |
| 2026-05-05 18:25 | 28.96468 | -78.72800 | 35117 ft | 395 kts | 358° |
| 2026-05-05 18:26 | 29.01919 | -78.72021 | 35124 ft | 395 kts | 358° |
| 2026-05-05 18:26 | 29.07374 | -78.71227 | 35155 ft | 395 kts | 358° |
| 2026-05-05 18:27 | 29.12808 | -78.70438 | 35117 ft | 393 kts | 358° |
| 2026-05-05 18:27 | 29.18200 | -78.69662 | 35118 ft | 393 kts | 358° |
| 2026-05-05 18:28 | 29.26359 | -78.68498 | 35135 ft | 394 kts | 358° |
| 2026-05-05 18:28 | 29.31806 | -78.67715 | 35143 ft | 395 kts | 358° |
| 2026-05-05 18:29 | 29.37262 | -78.66921 | 35138 ft | 394 kts | 358° |
| 2026-05-05 18:29 | 29.42702 | -78.66137 | 35129 ft | 394 kts | 358° |
| 2026-05-05 18:30 | 29.48143 | -78.65378 | 35127 ft | 394 kts | 358° |
| 2026-05-05 18:30 | 29.53588 | -78.64628 | 35128 ft | 394 kts | 358° |
| 2026-05-05 18:31 | 29.59037 | -78.63862 | 35128 ft | 395 kts | 358° |
| 2026-05-05 18:31 | 29.64490 | -78.63085 | 35159 ft | 395 kts | 358° |
| 2026-05-05 18:32 | 29.69947 | -78.62306 | 35148 ft | 395 kts | 358° |
| 2026-05-05 18:32 | 29.74485 | -78.61667 | 35143 ft | 395 kts | 358° |
| 2026-05-05 18:33 | 29.79949 | -78.60895 | 35143 ft | 396 kts | 358° |
| 2026-05-05 18:33 | 29.85416 | -78.60125 | 35141 ft | 396 kts | 358° |
| 2026-05-05 18:34 | 29.90877 | -78.59353 | 35178 ft | 396 kts | 358° |
| 2026-05-05 18:34 | 29.96327 | -78.58574 | 35134 ft | 394 kts | 358° |
| 2026-05-05 18:35 | 30.01777 | -78.57794 | 35131 ft | 395 kts | 358° |
| 2026-05-05 18:35 | 30.07234 | -78.57017 | 35128 ft | 395 kts | 358° |
| 2026-05-05 18:36 | 30.12660 | -78.56248 | 35133 ft | 396 kts | 358° |
| 2026-05-05 18:36 | 30.18128 | -78.55466 | 35140 ft | 396 kts | 358° |
| 2026-05-05 18:37 | 30.23600 | -78.54677 | 35140 ft | 396 kts | 358° |
| 2026-05-05 18:37 | 30.29075 | -78.53891 | 35141 ft | 396 kts | 358° |
| 2026-05-05 18:38 | 30.34546 | -78.53116 | 35143 ft | 396 kts | 358° |
| 2026-05-05 18:38 | 30.40021 | -78.52339 | 35143 ft | 396 kts | 358° |
| 2026-05-05 18:39 | 30.45488 | -78.51524 | 35173 ft | 397 kts | 359° |
| 2026-05-05 18:39 | 30.50964 | -78.50625 | 35164 ft | 398 kts | 359° |
| 2026-05-05 18:40 | 30.56445 | -78.49718 | 35158 ft | 398 kts | 359° |
| 2026-05-05 18:40 | 30.61925 | -78.48815 | 35155 ft | 398 kts | 359° |
| 2026-05-05 18:41 | 30.67415 | -78.47925 | 35155 ft | 398 kts | 359° |
| 2026-05-05 18:41 | 30.72901 | -78.47037 | 35194 ft | 398 kts | 359° |
| 2026-05-05 18:42 | 30.78379 | -78.46141 | 35147 ft | 397 kts | 359° |
| 2026-05-05 18:42 | 30.83850 | -78.45253 | 35143 ft | 397 kts | 359° |
| 2026-05-05 18:43 | 30.89322 | -78.44362 | 35145 ft | 398 kts | 359° |
| 2026-05-05 18:43 | 30.94807 | -78.43473 | 35149 ft | 398 kts | 359° |
| 2026-05-05 18:44 | 31.00295 | -78.42574 | 35181 ft | 398 kts | 359° |
| 2026-05-05 18:44 | 31.05784 | -78.41674 | 35171 ft | 398 kts | 359° |
| 2026-05-05 18:45 | 31.11276 | -78.40782 | 35166 ft | 398 kts | 359° |
| 2026-05-05 18:45 | 31.16767 | -78.39882 | 35162 ft | 398 kts | 359° |
| 2026-05-05 18:46 | 31.22251 | -78.38981 | 35160 ft | 398 kts | 359° |
| 2026-05-05 18:46 | 31.27740 | -78.38064 | 35187 ft | 398 kts | 359° |
| 2026-05-05 18:47 | 31.33228 | -78.37162 | 35174 ft | 398 kts | 359° |
| 2026-05-05 18:47 | 31.38677 | -78.36271 | 35166 ft | 398 kts | 359° |
| 2026-05-05 18:48 | 31.44155 | -78.35366 | 35161 ft | 398 kts | 359° |
| 2026-05-05 18:48 | 31.49638 | -78.34456 | 35158 ft | 398 kts | 359° |
| 2026-05-05 18:49 | 31.55123 | -78.33548 | 35182 ft | 398 kts | 359° |
| 2026-05-05 18:49 | 31.60589 | -78.32642 | 35166 ft | 397 kts | 360° |
| 2026-05-05 18:50 | 31.66062 | -78.31737 | 35154 ft | 397 kts | 359° |
| 2026-05-05 18:50 | 31.71533 | -78.30833 | 35158 ft | 397 kts | 359° |
| 2026-05-05 18:51 | 31.77008 | -78.29923 | 35154 ft | 398 kts | 360° |
| 2026-05-05 18:51 | 31.82491 | -78.29011 | 35186 ft | 398 kts | 360° |
| 2026-05-05 18:52 | 31.87977 | -78.28098 | 35173 ft | 398 kts | 360° |
| 2026-05-05 18:52 | 31.93459 | -78.27177 | 35167 ft | 398 kts | 360° |
| 2026-05-05 18:53 | 31.98936 | -78.26259 | 35166 ft | 397 kts | 360° |
| 2026-05-05 18:53 | 32.04376 | -78.25324 | 35164 ft | 399 kts | 1° |
| 2026-05-05 18:54 | 32.09848 | -78.24173 | 35154 ft | 399 kts | 2° |
| 2026-05-05 18:54 | 32.15286 | -78.22935 | 35149 ft | 398 kts | 2° |
| 2026-05-05 18:55 | 32.20730 | -78.21724 | 35149 ft | 398 kts | 2° |
| 2026-05-05 18:55 | 32.26179 | -78.20552 | 35149 ft | 398 kts | 2° |
| 2026-05-05 18:56 | 32.31627 | -78.19391 | 35149 ft | 398 kts | 2° |
| 2026-05-05 18:56 | 32.37075 | -78.18214 | 35170 ft | 398 kts | 2° |
| 2026-05-05 18:57 | 32.42532 | -78.17026 | 35159 ft | 399 kts | 2° |
| 2026-05-05 18:57 | 32.47989 | -78.15835 | 35157 ft | 399 kts | 2° |
| 2026-05-05 18:58 | 32.53447 | -78.14653 | 35156 ft | 399 kts | 2° |
| 2026-05-05 18:58 | 32.58907 | -78.13472 | 35156 ft | 399 kts | 2° |
| 2026-05-05 18:59 | 32.64367 | -78.12278 | 35172 ft | 399 kts | 2° |
| 2026-05-05 18:59 | 32.69837 | -78.11089 | 35165 ft | 399 kts | 2° |
| 2026-05-05 19:00 | 32.75309 | -78.09895 | 35159 ft | 400 kts | 2° |
| 2026-05-05 19:00 | 32.80777 | -78.08694 | 35160 ft | 400 kts | 2° |
| 2026-05-05 19:01 | 32.86214 | -78.07503 | 35159 ft | 400 kts | 2° |
| 2026-05-05 19:01 | 32.91719 | -78.06299 | 35158 ft | 400 kts | 2° |
| 2026-05-05 19:02 | 32.97187 | -78.05103 | 35157 ft | 399 kts | 2° |
| 2026-05-05 19:02 | 33.02653 | -78.03898 | 35155 ft | 399 kts | 2° |
| 2026-05-05 19:03 | 33.08122 | -78.02695 | 35150 ft | 400 kts | 2° |
| 2026-05-05 19:03 | 33.13557 | -78.01499 | 35175 ft | 400 kts | 3° |
| 2026-05-05 19:04 | 33.19033 | -78.00293 | 35167 ft | 400 kts | 3° |
| 2026-05-05 19:04 | 33.24508 | -77.99083 | 35163 ft | 400 kts | 3° |
| 2026-05-05 19:05 | 33.29987 | -77.97868 | 35157 ft | 400 kts | 3° |
| 2026-05-05 19:05 | 33.35465 | -77.96655 | 35158 ft | 400 kts | 3° |
| 2026-05-05 19:06 | 33.40945 | -77.95443 | 35176 ft | 400 kts | 3° |
| 2026-05-05 19:06 | 33.46409 | -77.94237 | 35160 ft | 399 kts | 3° |
| 2026-05-05 19:07 | 33.51868 | -77.93020 | 35159 ft | 399 kts | 3° |
| 2026-05-05 19:07 | 33.57327 | -77.91804 | 35159 ft | 399 kts | 3° |
| 2026-05-05 19:08 | 33.62784 | -77.90583 | 35174 ft | 399 kts | 3° |
| 2026-05-05 19:08 | 33.68246 | -77.89362 | 35166 ft | 399 kts | 3° |
| 2026-05-05 19:09 | 33.73714 | -77.88141 | 35158 ft | 400 kts | 3° |
| 2026-05-05 19:09 | 33.79181 | -77.86917 | 35162 ft | 400 kts | 3° |
| 2026-05-05 19:10 | 33.84651 | -77.85604 | 35162 ft | 401 kts | 4° |
| 2026-05-05 19:10 | 33.90080 | -77.84209 | 35181 ft | 402 kts | 4° |
| 2026-05-05 19:11 | 33.95545 | -77.82808 | 35172 ft | 401 kts | 4° |
| 2026-05-05 19:11 | 34.01002 | -77.81429 | 35163 ft | 400 kts | 4° |
| 2026-05-05 19:12 | 34.06455 | -77.80056 | 35152 ft | 400 kts | 4° |
| 2026-05-05 19:12 | 34.11907 | -77.78684 | 35150 ft | 400 kts | 4° |
| 2026-05-05 19:13 | 34.17361 | -77.77306 | 35162 ft | 401 kts | 4° |
| 2026-05-05 19:13 | 34.22828 | -77.75916 | 35151 ft | 401 kts | 4° |
| 2026-05-05 19:14 | 34.28292 | -77.74530 | 35152 ft | 401 kts | 4° |
| 2026-05-05 19:14 | 34.33751 | -77.73140 | 35152 ft | 401 kts | 4° |
| 2026-05-05 19:15 | 34.39172 | -77.71759 | 35163 ft | 401 kts | 4° |
| 2026-05-05 19:15 | 34.44630 | -77.70374 | 35150 ft | 401 kts | 4° |
| 2026-05-05 19:16 | 34.50089 | -77.68984 | 35152 ft | 401 kts | 4° |
| 2026-05-05 19:16 | 34.55544 | -77.67523 | 35148 ft | 405 kts | 9° |
| 2026-05-05 19:17 | 34.58197 | -77.66239 | 35153 ft | 416 kts | 17° |
| 2026-05-05 19:17 | 34.60792 | -77.64684 | 35154 ft | 416 kts | 17° |
| 2026-05-05 19:17 | 34.65988 | -77.61571 | 35166 ft | 417 kts | 17° |
| 2026-05-05 19:18 | 34.71194 | -77.58459 | 35178 ft | 417 kts | 18° |
| 2026-05-05 19:18 | 34.76403 | -77.55344 | 35171 ft | 416 kts | 18° |
| 2026-05-05 19:19 | 34.81603 | -77.52233 | 35166 ft | 416 kts | 18° |
| 2026-05-05 19:19 | 34.86784 | -77.49123 | 35181 ft | 415 kts | 18° |
| 2026-05-05 19:20 | 34.91964 | -77.46009 | 35167 ft | 415 kts | 18° |
| 2026-05-05 19:20 | 34.97141 | -77.42895 | 35156 ft | 415 kts | 18° |
| 2026-05-05 19:21 | 35.02287 | -77.39796 | 35146 ft | 415 kts | 18° |
| 2026-05-05 19:21 | 35.07465 | -77.36675 | 35151 ft | 415 kts | 18° |
| 2026-05-05 19:22 | 35.12654 | -77.33543 | 35156 ft | 416 kts | 18° |
| 2026-05-05 19:22 | 35.17843 | -77.30409 | 35140 ft | 416 kts | 18° |
| 2026-05-05 19:23 | 35.22158 | -77.27797 | 35132 ft | 416 kts | 18° |
| 2026-05-05 19:23 | 35.27352 | -77.24648 | 35131 ft | 417 kts | 18° |
| 2026-05-05 19:24 | 35.32548 | -77.21490 | 35142 ft | 417 kts | 18° |
| 2026-05-05 19:24 | 35.37741 | -77.18325 | 35132 ft | 417 kts | 18° |
| 2026-05-05 19:25 | 35.42932 | -77.15165 | 35129 ft | 417 kts | 18° |
| 2026-05-05 19:25 | 35.48126 | -77.11997 | 35128 ft | 417 kts | 18° |
| 2026-05-05 19:26 | 35.53313 | -77.08820 | 35126 ft | 417 kts | 18° |
| 2026-05-05 19:26 | 35.58510 | -77.05641 | 35140 ft | 417 kts | 18° |
| 2026-05-05 19:27 | 35.63709 | -77.02467 | 35132 ft | 418 kts | 18° |
| 2026-05-05 19:27 | 35.68914 | -76.99280 | 35129 ft | 418 kts | 18° |
| 2026-05-05 19:28 | 35.74125 | -76.96070 | 35122 ft | 418 kts | 18° |
| 2026-05-05 19:28 | 35.79334 | -76.92863 | 35130 ft | 419 kts | 18° |
| 2026-05-05 19:29 | 35.84547 | -76.89655 | 35118 ft | 419 kts | 18° |
| 2026-05-05 19:29 | 35.89760 | -76.86437 | 35132 ft | 419 kts | 19° |
| 2026-05-05 19:30 | 35.95033 | -76.83406 | 35117 ft | 417 kts | 16° |
| 2026-05-05 19:30 | 36.00401 | -76.80704 | 35113 ft | 416 kts | 15° |
| 2026-05-05 19:31 | 36.05784 | -76.78035 | 35123 ft | 417 kts | 15° |
| 2026-05-05 19:31 | 36.11123 | -76.75312 | 35115 ft | 418 kts | 15° |
| 2026-05-05 19:32 | 36.16486 | -76.72529 | 35111 ft | 418 kts | 15° |
| 2026-05-05 19:32 | 36.21855 | -76.69732 | 35101 ft | 418 kts | 15° |
| 2026-05-05 19:33 | 36.27223 | -76.66937 | 35106 ft | 418 kts | 15° |
| 2026-05-05 19:33 | 36.32595 | -76.64147 | 35092 ft | 419 kts | 15° |
| 2026-05-05 19:34 | 36.37974 | -76.61356 | 35090 ft | 419 kts | 15° |
| 2026-05-05 19:35 | 36.46044 | -76.57140 | 35085 ft | 420 kts | 15° |
| 2026-05-05 19:35 | 36.51432 | -76.54316 | 35088 ft | 420 kts | 15° |
| 2026-05-05 19:36 | 36.56829 | -76.51493 | 35087 ft | 421 kts | 15° |
| 2026-05-05 19:36 | 36.62233 | -76.48675 | 35098 ft | 422 kts | 16° |
| 2026-05-05 19:37 | 36.67643 | -76.45838 | 35084 ft | 422 kts | 16° |
| 2026-05-05 19:37 | 36.73060 | -76.42983 | 35092 ft | 423 kts | 17° |
| 2026-05-05 19:38 | 36.78491 | -76.40123 | 35085 ft | 424 kts | 16° |
| 2026-05-05 19:38 | 36.83925 | -76.37258 | 35081 ft | 424 kts | 17° |
| 2026-05-05 19:39 | 36.89365 | -76.34382 | 35086 ft | 424 kts | 17° |
| 2026-05-05 19:39 | 36.94803 | -76.31503 | 35102 ft | 425 kts | 17° |
| 2026-05-05 19:40 | 37.00248 | -76.28616 | 35090 ft | 425 kts | 17° |
| 2026-05-05 19:40 | 37.05657 | -76.25741 | 35051 ft | 426 kts | 17° |
| 2026-05-05 19:41 | 37.11115 | -76.22845 | 35052 ft | 426 kts | 16° |
| 2026-05-05 19:41 | 37.16571 | -76.19950 | 35058 ft | 426 kts | 16° |
| 2026-05-05 19:42 | 37.22024 | -76.17042 | 35049 ft | 426 kts | 17° |
| 2026-05-05 19:42 | 37.27484 | -76.14119 | 35050 ft | 426 kts | 17° |
| 2026-05-05 19:43 | 37.32949 | -76.11203 | 35032 ft | 427 kts | 17° |
| 2026-05-05 19:43 | 37.38426 | -76.08274 | 35028 ft | 428 kts | 17° |
| 2026-05-05 19:44 | 37.43914 | -76.05320 | 35026 ft | 429 kts | 17° |
| 2026-05-05 19:44 | 37.49408 | -76.02360 | 35020 ft | 430 kts | 17° |
| 2026-05-05 19:45 | 37.54912 | -75.99399 | 35021 ft | 430 kts | 17° |
| 2026-05-05 19:45 | 37.60402 | -75.96372 | 35013 ft | 433 kts | 22° |
| 2026-05-05 19:46 | 37.65533 | -75.92273 | 35045 ft | 438 kts | 27° |
| 2026-05-05 19:46 | 37.70624 | -75.88051 | 35053 ft | 438 kts | 27° |
| 2026-05-05 19:47 | 37.75719 | -75.83822 | 35046 ft | 438 kts | 27° |
| 2026-05-05 19:47 | 37.80812 | -75.79587 | 35061 ft | 438 kts | 27° |
| 2026-05-05 19:48 | 37.85876 | -75.75376 | 35055 ft | 438 kts | 28° |
| 2026-05-05 19:48 | 37.90970 | -75.71140 | 35059 ft | 438 kts | 28° |
| 2026-05-05 19:49 | 37.96059 | -75.66893 | 35060 ft | 438 kts | 28° |
| 2026-05-05 19:49 | 38.01139 | -75.62641 | 35039 ft | 438 kts | 28° |
| 2026-05-05 19:50 | 38.06228 | -75.58391 | 35021 ft | 438 kts | 27° |
| 2026-05-05 19:50 | 38.11310 | -75.54120 | 35016 ft | 438 kts | 28° |
| 2026-05-05 19:51 | 38.16397 | -75.49844 | 35013 ft | 439 kts | 28° |
| 2026-05-05 19:51 | 38.21483 | -75.45554 | 35025 ft | 439 kts | 28° |
| 2026-05-05 19:52 | 38.26703 | -75.41619 | 35034 ft | 431 kts | 17° |
| 2026-05-05 19:52 | 38.32418 | -75.39751 | 35027 ft | 422 kts | 5° |
| 2026-05-05 19:53 | 38.38220 | -75.38543 | 35020 ft | 423 kts | 5° |
| 2026-05-05 19:53 | 38.44031 | -75.37312 | 35024 ft | 423 kts | 5° |
| 2026-05-05 19:54 | 38.49839 | -75.36073 | 35011 ft | 423 kts | 5° |
| 2026-05-05 19:54 | 38.55645 | -75.34841 | 35009 ft | 423 kts | 5° |
| 2026-05-05 19:55 | 38.61458 | -75.33602 | 34999 ft | 424 kts | 5° |
| 2026-05-05 19:55 | 38.67234 | -75.32365 | 34998 ft | 424 kts | 5° |
| 2026-05-05 19:56 | 38.73055 | -75.31117 | 34992 ft | 424 kts | 5° |
| 2026-05-05 19:56 | 38.78777 | -75.29034 | 34985 ft | 434 kts | 20° |
| 2026-05-05 19:57 | 38.84114 | -75.25288 | 34978 ft | 438 kts | 24° |
| 2026-05-05 19:57 | 38.89390 | -75.21332 | 34972 ft | 440 kts | 26° |
| 2026-05-05 19:58 | 38.94578 | -75.17102 | 34945 ft | 442 kts | 27° |
| 2026-05-05 19:58 | 38.99758 | -75.12820 | 34941 ft | 443 kts | 27° |
| 2026-05-05 19:59 | 39.04969 | -75.08594 | 34945 ft | 443 kts | 26° |
| 2026-05-05 19:59 | 39.10199 | -75.04388 | 34978 ft | 443 kts | 26° |
| 2026-05-05 20:00 | 39.15417 | -75.00172 | 34979 ft | 442 kts | 27° |
| 2026-05-05 20:00 | 39.20618 | -74.95949 | 35002 ft | 442 kts | 27° |
| 2026-05-05 20:01 | 39.25783 | -74.91749 | 34986 ft | 441 kts | 27° |
| 2026-05-05 20:01 | 39.30981 | -74.87521 | 34972 ft | 442 kts | 27° |
| 2026-05-05 20:02 | 39.36182 | -74.83277 | 34961 ft | 442 kts | 27° |
| 2026-05-05 20:02 | 39.41388 | -74.79019 | 34952 ft | 443 kts | 27° |
| 2026-05-05 20:03 | 39.46601 | -74.74750 | 34972 ft | 444 kts | 27° |
| 2026-05-05 20:03 | 39.51820 | -74.70461 | 34966 ft | 445 kts | 27° |
| 2026-05-05 20:04 | 39.57045 | -74.66157 | 34956 ft | 445 kts | 27° |
| 2026-05-05 20:04 | 39.62285 | -74.61856 | 34952 ft | 446 kts | 27° |
| 2026-05-05 20:05 | 39.67522 | -74.57555 | 34948 ft | 446 kts | 27° |
| 2026-05-05 20:05 | 39.72754 | -74.53226 | 34925 ft | 446 kts | 27° |
| 2026-05-05 20:06 | 39.77992 | -74.48885 | 34927 ft | 446 kts | 27° |
| 2026-05-05 20:06 | 39.83190 | -74.44576 | 34925 ft | 446 kts | 27° |
| 2026-05-05 20:07 | 39.88467 | -74.40200 | 34930 ft | 447 kts | 27° |
| 2026-05-05 20:07 | 39.93713 | -74.35834 | 34920 ft | 448 kts | 27° |
| 2026-05-05 20:08 | 39.98925 | -74.31485 | 34924 ft | 448 kts | 27° |
| 2026-05-05 20:08 | 40.04168 | -74.27100 | 34925 ft | 447 kts | 27° |
| 2026-05-05 20:09 | 40.09414 | -74.22707 | 34920 ft | 448 kts | 27° |
| 2026-05-05 20:09 | 40.14658 | -74.18308 | 34916 ft | 448 kts | 27° |
| 2026-05-05 20:10 | 40.19017 | -74.14648 | 34916 ft | 448 kts | 27° |
| 2026-05-05 20:10 | 40.24262 | -74.10247 | 34918 ft | 448 kts | 27° |
| 2026-05-05 20:11 | 40.29495 | -74.05836 | 34921 ft | 441 kts | 27° |
| 2026-05-05 20:11 | 40.34644 | -74.01492 | 34900 ft | 445 kts | 27° |
| 2026-05-05 20:12 | 40.39879 | -73.97068 | 34893 ft | 447 kts | 27° |
| 2026-05-05 20:12 | 40.45110 | -73.92623 | 34909 ft | 448 kts | 27° |
| 2026-05-05 20:13 | 40.50353 | -73.88169 | 34902 ft | 449 kts | 27° |
| 2026-05-05 20:13 | 40.55604 | -73.83714 | 34899 ft | 450 kts | 27° |
| 2026-05-05 20:14 | 40.60853 | -73.79231 | 34897 ft | 449 kts | 27° |
| 2026-05-05 20:14 | 40.65607 | -73.74014 | 34357 ft | 452 kts | 43° |
| 2026-05-05 20:14 | 40.67702 | -73.70897 | 33522 ft | 458 kts | 43° |
| 2026-05-05 20:15 | 40.69787 | -73.67768 | 32700 ft | 462 kts | 44° |
| 2026-05-05 20:15 | 40.71921 | -73.64571 | 31871 ft | 466 kts | 44° |
| 2026-05-05 20:15 | 40.74083 | -73.61360 | 31004 ft | 471 kts | 44° |
| 2026-05-05 20:15 | 40.76290 | -73.58110 | 30051 ft | 478 kts | 44° |
| 2026-05-05 20:16 | 40.78530 | -73.54829 | 28990 ft | 484 kts | 45° |
| 2026-05-05 20:16 | 40.80793 | -73.51514 | 28004 ft | 488 kts | 45° |
| 2026-05-05 20:16 | 40.83079 | -73.48164 | 26903 ft | 494 kts | 45° |
| 2026-05-05 20:16 | 40.85369 | -73.44803 | 26461 ft | 486 kts | 45° |
| 2026-05-05 20:17 | 40.87586 | -73.41533 | 26339 ft | 472 kts | 45° |
| 2026-05-05 20:17 | 40.89754 | -73.38325 | 26082 ft | 466 kts | 45° |
| 2026-05-05 20:17 | 40.91906 | -73.35141 | 25833 ft | 463 kts | 45° |
| 2026-05-05 20:17 | 40.94052 | -73.31968 | 25582 ft | 462 kts | 45° |
| 2026-05-05 20:18 | 40.96184 | -73.28813 | 25324 ft | 460 kts | 45° |
| 2026-05-05 20:18 | 40.98312 | -73.25658 | 25097 ft | 458 kts | 45° |
| 2026-05-05 20:18 | 41.00434 | -73.22513 | 24852 ft | 458 kts | 45° |
| 2026-05-05 20:18 | 41.02553 | -73.19368 | 24628 ft | 457 kts | 45° |
| 2026-05-05 20:19 | 41.04666 | -73.16232 | 24391 ft | 456 kts | 45° |
| 2026-05-05 20:19 | 41.06775 | -73.13095 | 24153 ft | 454 kts | 46° |
| 2026-05-05 20:19 | 41.08869 | -73.09972 | 23935 ft | 453 kts | 46° |
| 2026-05-05 20:19 | 41.10962 | -73.06847 | 23703 ft | 452 kts | 46° |
| 2026-05-05 20:20 | 41.13050 | -73.03732 | 23468 ft | 451 kts | 46° |
| 2026-05-05 20:20 | 41.15105 | -73.00664 | 23195 ft | 450 kts | 46° |
| 2026-05-05 20:20 | 41.17181 | -72.97556 | 22946 ft | 449 kts | 46° |
| 2026-05-05 20:20 | 41.19247 | -72.94465 | 22877 ft | 447 kts | 46° |
| 2026-05-05 20:21 | 41.21169 | -72.91202 | 22894 ft | 450 kts | 55° |
| 2026-05-05 20:21 | 41.22696 | -72.87556 | 22803 ft | 452 kts | 62° |
| 2026-05-05 20:21 | 41.24109 | -72.83836 | 22661 ft | 452 kts | 62° |
| 2026-05-05 20:21 | 41.25526 | -72.80117 | 22396 ft | 450 kts | 62° |
| 2026-05-05 20:22 | 41.26937 | -72.76426 | 22132 ft | 448 kts | 61° |
| 2026-05-05 20:22 | 41.28349 | -72.72738 | 21872 ft | 446 kts | 62° |
| 2026-05-05 20:22 | 41.29754 | -72.69064 | 21612 ft | 445 kts | 62° |
| 2026-05-05 20:22 | 41.31153 | -72.65399 | 21374 ft | 444 kts | 62° |
| 2026-05-05 20:23 | 41.32545 | -72.61745 | 21120 ft | 442 kts | 62° |
| 2026-05-05 20:23 | 41.33929 | -72.58105 | 20882 ft | 441 kts | 62° |
| 2026-05-05 20:23 | 41.35313 | -72.54468 | 20913 ft | 441 kts | 62° |
| 2026-05-05 20:23 | 41.36696 | -72.50828 | 20911 ft | 441 kts | 62° |
| 2026-05-05 20:24 | 41.38074 | -72.47180 | 20915 ft | 441 kts | 62° |
| 2026-05-05 20:24 | 41.39448 | -72.43532 | 20915 ft | 441 kts | 62° |
| 2026-05-05 20:24 | 41.40821 | -72.39891 | 20917 ft | 441 kts | 62° |
| 2026-05-05 20:24 | 41.42201 | -72.36235 | 20915 ft | 441 kts | 62° |
| 2026-05-05 20:25 | 41.43578 | -72.32586 | 20910 ft | 441 kts | 62° |
| 2026-05-05 20:25 | 41.44948 | -72.28938 | 20908 ft | 441 kts | 62° |
| 2026-05-05 20:25 | 41.46319 | -72.25272 | 20904 ft | 441 kts | 63° |
| 2026-05-05 20:25 | 41.47686 | -72.21616 | 20910 ft | 441 kts | 62° |
| 2026-05-05 20:26 | 41.49056 | -72.17945 | 20737 ft | 441 kts | 63° |
| 2026-05-05 20:26 | 41.50407 | -72.14280 | 20492 ft | 440 kts | 63° |
| 2026-05-05 20:26 | 41.51746 | -72.10617 | 20242 ft | 438 kts | 63° |
| 2026-05-05 20:26 | 41.53076 | -72.06961 | 19996 ft | 437 kts | 63° |
| 2026-05-05 20:27 | 41.54401 | -72.03318 | 19752 ft | 436 kts | 63° |
| 2026-05-05 20:27 | 41.55716 | -71.99682 | 19508 ft | 434 kts | 64° |
| 2026-05-05 20:27 | 41.56943 | -71.96002 | 19279 ft | 433 kts | 67° |
| 2026-05-05 20:27 | 41.58078 | -71.92282 | 19054 ft | 432 kts | 68° |
| 2026-05-05 20:28 | 41.59158 | -71.88546 | 18801 ft | 431 kts | 69° |
| 2026-05-05 20:28 | 41.60220 | -71.84805 | 18570 ft | 429 kts | 69° |
| 2026-05-05 20:28 | 41.61280 | -71.81084 | 18353 ft | 428 kts | 69° |
| 2026-05-05 20:28 | 41.62348 | -71.77378 | 18109 ft | 427 kts | 69° |
| 2026-05-05 20:29 | 41.63424 | -71.73689 | 17826 ft | 425 kts | 69° |
| 2026-05-05 20:29 | 41.64505 | -71.70013 | 17556 ft | 421 kts | 68° |
| 2026-05-05 20:29 | 41.65553 | -71.66469 | 17293 ft | 410 kts | 68° |
| 2026-05-05 20:29 | 41.66589 | -71.62967 | 17030 ft | 400 kts | 68° |
| 2026-05-05 20:30 | 41.67599 | -71.59539 | 16762 ft | 391 kts | 68° |
| 2026-05-05 20:30 | 41.68580 | -71.56203 | 16506 ft | 382 kts | 68° |
| 2026-05-05 20:30 | 41.69538 | -71.52931 | 16241 ft | 374 kts | 68° |
| 2026-05-05 20:30 | 41.70475 | -71.49719 | 15986 ft | 368 kts | 68° |
| 2026-05-05 20:31 | 41.71404 | -71.46541 | 15743 ft | 366 kts | 68° |
| 2026-05-05 20:31 | 41.72351 | -71.43388 | 15495 ft | 364 kts | 64° |
| 2026-05-05 20:31 | 41.73555 | -71.40419 | 15246 ft | 362 kts | 58° |
| 2026-05-05 20:31 | 41.74807 | -71.37497 | 14999 ft | 361 kts | 58° |
| 2026-05-05 20:32 | 41.76051 | -71.34590 | 14764 ft | 360 kts | 58° |
| 2026-05-05 20:32 | 41.77296 | -71.31677 | 14526 ft | 359 kts | 58° |
| 2026-05-05 20:32 | 41.78538 | -71.28774 | 14284 ft | 358 kts | 58° |
| 2026-05-05 20:32 | 41.79776 | -71.25882 | 14039 ft | 357 kts | 58° |
| 2026-05-05 20:33 | 41.81010 | -71.22996 | 13771 ft | 355 kts | 57° |
| 2026-05-05 20:33 | 41.82219 | -71.20152 | 13548 ft | 348 kts | 58° |
| 2026-05-05 20:33 | 41.83412 | -71.17341 | 13137 ft | 347 kts | 58° |
| 2026-05-05 20:33 | 41.84603 | -71.14536 | 12708 ft | 346 kts | 58° |
| 2026-05-05 20:34 | 41.85790 | -71.11737 | 12308 ft | 345 kts | 58° |
| 2026-05-05 20:34 | 41.86981 | -71.08955 | 11956 ft | 342 kts | 57° |
| 2026-05-05 20:34 | 41.88170 | -71.06202 | 11755 ft | 338 kts | 57° |
| 2026-05-05 20:34 | 41.89351 | -71.03479 | 11595 ft | 338 kts | 57° |
| 2026-05-05 20:35 | 41.90533 | -71.00753 | 11453 ft | 338 kts | 57° |
| 2026-05-05 20:35 | 41.91713 | -70.98027 | 11300 ft | 337 kts | 57° |
| 2026-05-05 20:35 | 41.92891 | -70.95301 | 11148 ft | 337 kts | 57° |
| 2026-05-05 20:35 | 41.94063 | -70.92572 | 10998 ft | 337 kts | 58° |
| 2026-05-05 20:36 | 41.95219 | -70.89875 | 10837 ft | 337 kts | 58° |
| 2026-05-05 20:36 | 41.96388 | -70.87148 | 10671 ft | 337 kts | 58° |
| 2026-05-05 20:36 | 41.97574 | -70.84382 | 10535 ft | 338 kts | 57° |
| 2026-05-05 20:36 | 41.98735 | -70.81678 | 10388 ft | 338 kts | 57° |
| 2026-05-05 20:37 | 41.99909 | -70.78943 | 10257 ft | 338 kts | 58° |
| 2026-05-05 20:37 | 42.01138 | -70.76265 | 10080 ft | 334 kts | 50° |
| 2026-05-05 20:37 | 42.02643 | -70.73903 | 9735 ft | 332 kts | 44° |
| 2026-05-05 20:37 | 42.04187 | -70.71605 | 9392 ft | 330 kts | 44° |
| 2026-05-05 20:38 | 42.05723 | -70.69313 | 9077 ft | 329 kts | 45° |
| 2026-05-05 20:38 | 42.07253 | -70.67021 | 8756 ft | 328 kts | 45° |
| 2026-05-05 20:38 | 42.08779 | -70.64734 | 8441 ft | 328 kts | 44° |
| 2026-05-05 20:38 | 42.10468 | -70.62727 | 8154 ft | 322 kts | 29° |
| 2026-05-05 20:39 | 42.12425 | -70.61342 | 7847 ft | 314 kts | 13° |
| 2026-05-05 20:39 | 42.14511 | -70.60599 | 7549 ft | 308 kts | 4° |
| 2026-05-05 20:39 | 42.16613 | -70.60026 | 7277 ft | 308 kts | 4° |
| 2026-05-05 20:39 | 42.18717 | -70.59441 | 6964 ft | 308 kts | 4° |
| 2026-05-05 20:40 | 42.20821 | -70.58852 | 6679 ft | 309 kts | 5° |
| 2026-05-05 20:40 | 42.22926 | -70.58259 | 6385 ft | 309 kts | 5° |
| 2026-05-05 20:40 | 42.25034 | -70.57663 | 6052 ft | 309 kts | 5° |
| 2026-05-05 20:40 | 42.27135 | -70.57072 | 5773 ft | 308 kts | 5° |
| 2026-05-05 20:41 | 42.29236 | -70.56505 | 5476 ft | 305 kts | 1° |
| 2026-05-05 20:41 | 42.31302 | -70.56486 | 5187 ft | 291 kts | 342° |
| 2026-05-05 20:41 | 42.33202 | -70.57221 | 5035 ft | 278 kts | 325° |
| 2026-05-05 20:41 | 42.34814 | -70.58551 | 5039 ft | 268 kts | 310° |
| 2026-05-05 20:42 | 42.36159 | -70.60250 | 5060 ft | 263 kts | 306° |
| 2026-05-05 20:42 | 42.37469 | -70.61964 | 5033 ft | 262 kts | 306° |
| 2026-05-05 20:42 | 42.38779 | -70.63678 | 5029 ft | 262 kts | 306° |
| 2026-05-05 20:42 | 42.40085 | -70.65393 | 5027 ft | 262 kts | 306° |
| 2026-05-05 20:43 | 42.41387 | -70.67110 | 5016 ft | 262 kts | 306° |
| 2026-05-05 20:43 | 42.42693 | -70.68826 | 5013 ft | 261 kts | 306° |
| 2026-05-05 20:43 | 42.43999 | -70.70541 | 5011 ft | 262 kts | 306° |
| 2026-05-05 20:43 | 42.45302 | -70.72254 | 5009 ft | 262 kts | 306° |
| 2026-05-05 20:44 | 42.46607 | -70.73973 | 5007 ft | 261 kts | 306° |
| 2026-05-05 20:44 | 42.47903 | -70.75688 | 5002 ft | 260 kts | 306° |
| 2026-05-05 20:44 | 42.49199 | -70.77403 | 5001 ft | 260 kts | 306° |
| 2026-05-05 20:44 | 42.50480 | -70.79090 | 4993 ft | 250 kts | 306° |
| 2026-05-05 20:45 | 42.53400 | -70.81317 | 4993 ft | 260 kts | 348° |
| 2026-05-05 20:45 | 42.55225 | -70.80914 | 4820 ft | 271 kts | 13° |
| 2026-05-05 20:45 | 42.56969 | -70.80070 | 4668 ft | 261 kts | 14° |
| 2026-05-05 20:46 | 42.58654 | -70.79219 | 4370 ft | 257 kts | 13° |
| 2026-05-05 20:46 | 42.60316 | -70.78365 | 4034 ft | 254 kts | 15° |
| 2026-05-05 20:46 | 42.61988 | -70.77664 | 3987 ft | 248 kts | 358° |
| 2026-05-05 20:46 | 42.63627 | -70.77924 | 3996 ft | 230 kts | 330° |
| 2026-05-05 20:47 | 42.64935 | -70.79003 | 4003 ft | 214 kts | 306° |
| 2026-05-05 20:47 | 42.65766 | -70.80587 | 3998 ft | 201 kts | 285° |
| 2026-05-05 20:47 | 42.66086 | -70.82345 | 3995 ft | 190 kts | 266° |
| 2026-05-05 20:47 | 42.65935 | -70.84091 | 4003 ft | 184 kts | 249° |
| 2026-05-05 20:48 | 42.65367 | -70.85618 | 3998 ft | 182 kts | 232° |
| 2026-05-05 20:48 | 42.64451 | -70.86781 | 3995 ft | 181 kts | 216° |
| 2026-05-05 20:48 | 42.63290 | -70.87481 | 3995 ft | 184 kts | 206° |
| 2026-05-05 20:48 | 42.62084 | -70.88067 | 4003 ft | 184 kts | 206° |
| 2026-05-05 20:49 | 42.60864 | -70.88663 | 4002 ft | 190 kts | 203° |
| 2026-05-05 20:49 | 42.59616 | -70.89271 | 3993 ft | 189 kts | 204° |
| 2026-05-05 20:49 | 42.58375 | -70.89875 | 3996 ft | 190 kts | 204° |
| 2026-05-05 20:49 | 42.57185 | -70.90453 | 3956 ft | 172 kts | 205° |
| 2026-05-05 20:50 | 42.56109 | -70.90975 | 3787 ft | 157 kts | 204° |
| 2026-05-05 20:50 | 42.55442 | -70.91301 | 3665 ft | 151 kts | 204° |
| 2026-05-05 20:50 | 42.54170 | -70.91921 | 3418 ft | 140 kts | 204° |
| 2026-05-05 20:50 | 42.53270 | -70.92360 | 3247 ft | 136 kts | 204° |
| 2026-05-05 20:51 | 42.52386 | -70.92792 | 3075 ft | 135 kts | 204° |
| 2026-05-05 20:51 | 42.51496 | -70.93225 | 2896 ft | 136 kts | 204° |
| 2026-05-05 20:51 | 42.50602 | -70.93661 | 2721 ft | 137 kts | 203° |
| 2026-05-05 20:51 | 42.49705 | -70.94097 | 2543 ft | 137 kts | 203° |
| 2026-05-05 20:52 | 42.48814 | -70.94531 | 2367 ft | 136 kts | 200° |
| 2026-05-05 20:52 | 42.47921 | -70.94965 | 2183 ft | 136 kts | 201° |
| 2026-05-05 20:52 | 42.47025 | -70.95400 | 2032 ft | 137 kts | 200° |
| 2026-05-05 20:52 | 42.46141 | -70.95829 | 1839 ft | 136 kts | 200° |
| 2026-05-05 20:53 | 42.45254 | -70.96260 | 1668 ft | 135 kts | 200° |
| 2026-05-05 20:53 | 42.44371 | -70.96688 | 1478 ft | 137 kts | 200° |
| 2026-05-05 20:53 | 42.43462 | -70.97129 | 1302 ft | 139 kts | 200° |
| 2026-05-05 20:53 | 42.42574 | -70.97560 | 1129 ft | 135 kts | 199° |
| 2026-05-05 20:54 | 42.41707 | -70.97981 | 937 ft | 130 kts | 201° |
| 2026-05-05 20:54 | 42.40858 | -70.98393 | 773 ft | 131 kts | 199° |
| 2026-05-05 20:54 | 42.39974 | -70.98819 | 586 ft | 136 kts | 198° |
| 2026-05-05 20:54 | 42.39107 | -70.99245 | 444 ft | 129 kts | 201° |
| 2026-05-05 20:55 | 42.38262 | -70.99651 | 227 ft | 128 kts | 198° |
| 2026-05-05 20:55 | 42.37416 | -71.00067 | 65 ft | 130 kts | 198° |
| 2026-05-05 20:55 | 42.36614 | -71.00453 | 27 ft | 106 kts | 200° |
| 2026-05-05 20:55 | 42.36080 | -71.00708 | 27 ft | 57 kts | 199° |
| 2026-05-05 20:56 | 42.35851 | -71.00820 | 27 ft | 25 kts | 201° |
| 2026-05-05 20:56 | 42.35816 | -71.00954 | 26 ft | 17 kts | 291° |
| 2026-05-05 20:56 | 42.35833 | -71.01125 | 27 ft | 22 kts | 278° |
| 2026-05-05 20:56 | 42.35849 | -71.01278 | 28 ft | 27 kts | 277° |
| 2026-05-05 20:57 | 42.35905 | -71.01533 | 28 ft | 17 kts | 343° |
| 2026-05-05 20:57 | 42.35988 | -71.01504 | 27 ft | 22 kts | 18° |
| 2026-05-05 20:57 | 42.36158 | -71.01422 | 27 ft | 30 kts | 20° |
| 2026-05-05 20:57 | 42.36371 | -71.01316 | 27 ft | 31 kts | 21° |
| 2026-05-05 20:58 | 42.36526 | -71.01242 | 28 ft | 13 kts | 20° |
| 2026-05-05 20:58 | 42.36575 | -71.01252 | 28 ft | 8 kts | 315° |
| 2026-05-05 20:58 | 42.36600 | -71.01328 | 26 ft | 10 kts | 288° |
| 2026-05-05 20:58 | 42.36608 | -71.01362 | 26 ft | 0 kts | 289° |